Quenton Craig Harris — WDH9504 — position and weather

sailwx.info

Track history (hours):
 
Tides and Currents Weather Stations Pressure Air Temp Water Temp Dewpoint Dewpoint Depression Visibility Wind Speed Wind Dir Waves Ship Positions

Quenton Craig Harris

Owner: Marquette Transportation Co. LLC, Paducah, KY. More information available from US FCC via Universal Licensing System and Coast Guard Vessel Documentation Center.

Last reported at 2017-Dec-15 18:16 UTC. Time now 2017-Dec-17 17:45 UTC.
Position N 32°01' W 091°04'.

Length 42 m; draft 2.7 m.

Type: Towing. MMSI: 367668760.

Date/timePositionNaut miles runAvg speedWind from/ knotsBaromVisibWave heightAir tempDewpointWater temp
2017-Dec-15 18:16N 32°01' W 091°04'6 7.9
2017-Dec-15 17:33N 32°06' W 091°06'0 8.9
2017-Dec-15 17:30N 32°07' W 091°06'2 4.1
2017-Dec-15 17:00N 32°08' W 091°04'3 7.2
2017-Dec-15 16:31N 32°09' W 091°00'5 9.2
2017-Dec-15 16:01N 32°13' W 090°59'4 8.7
2017-Dec-15 15:31N 32°17' W 090°57'4 7.8
2017-Dec-15 15:01N 32°20' W 090°54'4 7.5
2017-Dec-15 14:31N 32°21' W 090°58'3 5.6
2017-Dec-15 14:01N 32°24' W 090°60'4 7.8
2017-Dec-15 13:31N 32°26' W 091°03'4 8.7
2017-Dec-15 13:00N 32°29' W 091°07'5 9.1
2017-Dec-15 12:30N 32°34' W 091°06'5 8.7
2017-Dec-15 11:59N 32°37' W 091°09'  
Track history (hours):
 
Tides and Currents Weather Stations Pressure Air Temp Water Temp Dewpoint Dewpoint Depression Visibility Wind Speed Wind Dir Waves Ship Positions

Quenton Craig Harris

Owner: Marquette Transportation Co. LLC, Paducah, KY. More information available from US FCC via Universal Licensing System and Coast Guard Vessel Documentation Center.

Last reported at 2017-Dec-15 18:16 UTC. Time now 2017-Dec-17 17:45 UTC.
Position N 32°01' W 091°04'.

Length 42 m; draft 2.7 m.

Type: Towing. MMSI: 367668760.

Date/timePositionNaut miles runAvg speedWind from/ knotsBaromVisibWave heightAir tempDewpointWater temp
2017-Dec-15 18:16N 32°01' W 091°04'6 7.9
2017-Dec-15 17:33N 32°06' W 091°06'0 8.9
2017-Dec-15 17:30N 32°07' W 091°06'2 4.1
2017-Dec-15 17:00N 32°08' W 091°04'3 7.2
2017-Dec-15 16:31N 32°09' W 091°00'5 9.2
2017-Dec-15 16:01N 32°13' W 090°59'4 8.7
2017-Dec-15 15:31N 32°17' W 090°57'4 7.8
2017-Dec-15 15:01N 32°20' W 090°54'4 7.5
2017-Dec-15 14:31N 32°21' W 090°58'3 5.6
2017-Dec-15 14:01N 32°24' W 090°60'4 7.8
2017-Dec-15 13:31N 32°26' W 091°03'4 8.7
2017-Dec-15 13:00N 32°29' W 091°07'5 9.1
2017-Dec-15 12:30N 32°34' W 091°06'5 8.7
2017-Dec-15 11:59N 32°37' W 091°09'  

Dump ship's entire track history